sensor_id;sensor_type;location;lat;lon;timestamp;pressure;altitude;pressure_sealevel;temperature;humidity
32251;BME280;41295;48.518;9.206;2022-09-21T00:01:06;97949.00;;;9.82;68.26
32251;BME280;41295;48.518;9.206;2022-09-21T00:03:10;97949.00;;;9.82;68.58
32251;BME280;41295;48.518;9.206;2022-09-21T00:05:12;97954.28;;;9.78;68.51
32251;BME280;41295;48.518;9.206;2022-09-21T00:07:15;97951.00;;;9.69;68.48
32251;BME280;41295;48.518;9.206;2022-09-21T00:09:18;97956.34;;;9.63;68.59
32251;BME280;41295;48.518;9.206;2022-09-21T00:11:22;97957.28;;;9.60;68.50
32251;BME280;41295;48.518;9.206;2022-09-21T00:13:25;97951.34;;;9.55;68.71
32251;BME280;41295;48.518;9.206;2022-09-21T00:15:30;97949.72;;;9.49;68.44
32251;BME280;41295;48.518;9.206;2022-09-21T00:17:33;97961.06;;;9.47;68.79
32251;BME280;41295;48.518;9.206;2022-09-21T00:19:35;97955.13;;;9.40;68.87
32251;BME280;41295;48.518;9.206;2022-09-21T00:21:38;97951.72;;;9.36;68.96
32251;BME280;41295;48.518;9.206;2022-09-21T00:23:42;97949.28;;;9.30;69.16
32251;BME280;41295;48.518;9.206;2022-09-21T00:25:45;97951.19;;;9.20;68.90
32251;BME280;41295;48.518;9.206;2022-09-21T00:27:47;97948.63;;;9.19;69.77
32251;BME280;41295;48.518;9.206;2022-09-21T00:29:51;97945.50;;;9.02;70.46
32251;BME280;41295;48.518;9.206;2022-09-21T00:31:55;97949.72;;;9.08;70.75
32251;BME280;41295;48.518;9.206;2022-09-21T00:33:59;97949.53;;;9.18;68.10
32251;BME280;41295;48.518;9.206;2022-09-21T00:36:04;97948.72;;;9.16;69.27
32251;BME280;41295;48.518;9.206;2022-09-21T00:38:07;97947.13;;;9.08;68.83
32251;BME280;41295;48.518;9.206;2022-09-21T00:40:10;97948.03;;;9.07;69.45
32251;BME280;41295;48.518;9.206;2022-09-21T00:42:16;97946.97;;;9.16;69.57
32251;BME280;41295;48.518;9.206;2022-09-21T00:44:30;97949.53;;;9.18;68.95
32251;BME280;41295;48.518;9.206;2022-09-21T00:46:34;97953.00;;;9.17;69.51
32251;BME280;41295;48.518;9.206;2022-09-21T00:48:40;97943.47;;;9.17;69.40
32251;BME280;41295;48.518;9.206;2022-09-21T00:50:47;97945.16;;;9.20;69.90
32251;BME280;41295;48.518;9.206;2022-09-21T00:52:54;97946.91;;;9.19;69.77
32251;BME280;41295;48.518;9.206;2022-09-21T00:55:02;97945.16;;;9.20;70.01
32251;BME280;41295;48.518;9.206;2022-09-21T00:57:07;97949.53;;;9.18;69.92
32251;BME280;41295;48.518;9.206;2022-09-21T00:59:10;97950.44;;;9.15;69.87
32251;BME280;41295;48.518;9.206;2022-09-21T01:01:14;97948.00;;;9.09;69.86
32251;BME280;41295;48.518;9.206;2022-09-21T01:03:18;97950.81;;;8.98;69.85
32251;BME280;41295;48.518;9.206;2022-09-21T01:05:22;97948.19;;;8.98;69.72
32251;BME280;41295;48.518;9.206;2022-09-21T01:07:27;97952.69;;;8.91;69.57
32251;BME280;41295;48.518;9.206;2022-09-21T01:09:31;97956.19;;;8.88;69.16
32251;BME280;41295;48.518;9.206;2022-09-21T01:11:40;97949.31;;;8.86;68.88
32251;BME280;41295;48.518;9.206;2022-09-21T01:13:56;97949.34;;;8.84;68.51
32251;BME280;41295;48.518;9.206;2022-09-21T01:16:06;97957.19;;;8.81;68.97
32251;BME280;41295;48.518;9.206;2022-09-21T01:18:19;97958.13;;;8.78;68.75
32251;BME280;41295;48.518;9.206;2022-09-21T01:20:38;97954.66;;;8.78;68.22
32251;BME280;41295;48.518;9.206;2022-09-21T01:22:56;97956.47;;;8.74;68.20
32251;BME280;41295;48.518;9.206;2022-09-21T01:25:08;97954.72;;;8.75;68.64
32251;BME280;41295;48.518;9.206;2022-09-21T01:29:54;97952.28;;;8.65;68.74
32251;BME280;41295;48.518;9.206;2022-09-21T01:32:05;97956.66;;;8.63;69.35
32251;BME280;41295;48.518;9.206;2022-09-21T01:34:13;97957.63;;;8.59;69.23
32251;BME280;41295;48.518;9.206;2022-09-21T01:36:21;97955.03;;;8.59;68.33
32251;BME280;41295;48.518;9.206;2022-09-21T01:38:29;97958.47;;;8.58;68.96
32251;BME280;41295;48.518;9.206;2022-09-21T01:40:36;97959.41;;;8.52;68.23
32251;BME280;41295;48.518;9.206;2022-09-21T01:42:42;97963.00;;;8.47;68.09
32251;BME280;41295;48.518;9.206;2022-09-21T01:44:46;97956.06;;;8.46;68.87
32251;BME280;41295;48.518;9.206;2022-09-21T01:46:52;97957.84;;;8.43;69.73
32251;BME280;41295;48.518;9.206;2022-09-21T01:48:58;97953.50;;;8.44;69.88
32251;BME280;41295;48.518;9.206;2022-09-21T01:51:07;97957.06;;;8.38;69.34
32251;BME280;41295;48.518;9.206;2022-09-21T01:53:16;97956.22;;;8.36;69.59
32251;BME280;41295;48.518;9.206;2022-09-21T01:55:23;97960.59;;;8.36;69.77
32251;BME280;41295;48.518;9.206;2022-09-21T01:57:33;97964.88;;;8.38;69.80
32251;BME280;41295;48.518;9.206;2022-09-21T01:59:45;97963.09;;;8.40;68.87
32251;BME280;41295;48.518;9.206;2022-09-21T02:01:53;97959.66;;;8.38;68.28
32251;BME280;41295;48.518;9.206;2022-09-21T02:04:00;97963.03;;;8.43;68.29
32251;BME280;41295;48.518;9.206;2022-09-21T02:06:05;97965.63;;;8.43;68.53
32251;BME280;41295;48.518;9.206;2022-09-21T02:08:09;97966.56;;;8.41;68.42
32251;BME280;41295;48.518;9.206;2022-09-21T02:10:16;97961.34;;;8.42;68.64
32251;BME280;41295;48.518;9.206;2022-09-21T02:12:21;97958.75;;;8.42;68.23
32251;BME280;41295;48.518;9.206;2022-09-21T02:14:24;97961.50;;;8.33;68.60
32251;BME280;41295;48.518;9.206;2022-09-21T02:16:34;97963.25;;;8.31;68.74
32251;BME280;41295;48.518;9.206;2022-09-21T02:18:50;97955.44;;;8.33;68.27
32251;BME280;41295;48.518;9.206;2022-09-21T02:20:59;97960.69;;;8.29;67.99
32251;BME280;41295;48.518;9.206;2022-09-21T02:23:07;97959.97;;;8.21;67.81
32251;BME280;41295;48.518;9.206;2022-09-21T02:25:15;97960.84;;;8.22;68.07
32251;BME280;41295;48.518;9.206;2022-09-21T02:27:27;97951.47;;;8.11;68.07
32251;BME280;41295;48.518;9.206;2022-09-21T02:29:41;97961.06;;;8.09;68.30
32251;BME280;41295;48.518;9.206;2022-09-21T02:31:51;97961.09;;;8.04;67.84
32251;BME280;41295;48.518;9.206;2022-09-21T02:34:02;97959.41;;;8.03;68.66
32251;BME280;41295;48.518;9.206;2022-09-21T02:36:12;97960.34;;;7.98;68.79
32251;BME280;41295;48.518;9.206;2022-09-21T02:38:22;97954.25;;;7.99;69.19
32251;BME280;41295;48.518;9.206;2022-09-21T02:40:29;97956.84;;;7.99;68.92
32251;BME280;41295;48.518;9.206;2022-09-21T02:42:38;97954.28;;;7.97;69.30
32251;BME280;41295;48.518;9.206;2022-09-21T02:44:46;97959.47;;;7.99;69.17
32251;BME280;41295;48.518;9.206;2022-09-21T02:46:54;97953.41;;;8.00;68.59
32251;BME280;41295;48.518;9.206;2022-09-21T02:49:02;97956.06;;;7.97;68.06
32251;BME280;41295;48.518;9.206;2022-09-21T02:51:09;97950.94;;;7.90;68.56
32251;BME280;41295;48.518;9.206;2022-09-21T02:53:17;97953.50;;;7.92;68.61
32251;BME280;41295;48.518;9.206;2022-09-21T02:55:21;97949.22;;;7.91;68.08
32251;BME280;41295;48.518;9.206;2022-09-21T02:57:24;97954.44;;;7.89;68.56
32251;BME280;41295;48.518;9.206;2022-09-21T02:59:27;97941.44;;;7.89;68.28
32251;BME280;41295;48.518;9.206;2022-09-21T03:01:31;97944.06;;;7.86;67.57
32251;BME280;41295;48.518;9.206;2022-09-21T03:03:34;97950.16;;;7.85;67.30
32251;BME280;41295;48.518;9.206;2022-09-21T03:05:38;97950.28;;;7.79;67.56
32251;BME280;41295;48.518;9.206;2022-09-21T03:07:40;97947.69;;;7.79;67.67
32251;BME280;41295;48.518;9.206;2022-09-21T03:09:43;97949.44;;;7.74;67.59
32251;BME280;41295;48.518;9.206;2022-09-21T03:11:46;97955.50;;;7.74;68.52
32251;BME280;41295;48.518;9.206;2022-09-21T03:13:49;97951.28;;;7.70;67.50
32251;BME280;41295;48.518;9.206;2022-09-21T03:15:58;97949.56;;;7.67;67.55
32251;BME280;41295;48.518;9.206;2022-09-21T03:18:01;97950.41;;;7.69;67.81
32251;BME280;41295;48.518;9.206;2022-09-21T03:20:06;97948.66;;;7.72;67.56
32251;BME280;41295;48.518;9.206;2022-09-21T03:22:10;97949.59;;;7.66;67.71
32251;BME280;41295;48.518;9.206;2022-09-21T03:24:12;97950.47;;;7.66;67.83
32251;BME280;41295;48.518;9.206;2022-09-21T03:26:35;97957.41;;;7.64;67.76
32251;BME280;41295;48.518;9.206;2022-09-21T03:28:37;97956.56;;;7.62;67.95
32251;BME280;41295;48.518;9.206;2022-09-21T03:30:40;97955.78;;;7.57;67.75
32251;BME280;41295;48.518;9.206;2022-09-21T03:32:43;97967.00;;;7.59;67.54
32251;BME280;41295;48.518;9.206;2022-09-21T03:34:45;97961.84;;;7.57;67.40
32251;BME280;41295;48.518;9.206;2022-09-21T03:36:48;97960.88;;;7.62;67.17
32251;BME280;41295;48.518;9.206;2022-09-21T03:38:52;97958.41;;;7.55;67.32
32251;BME280;41295;48.518;9.206;2022-09-21T03:40:54;97959.28;;;7.53;67.68
32251;BME280;41295;48.518;9.206;2022-09-21T03:42:58;97975.75;;;7.52;67.77
32251;BME280;41295;48.518;9.206;2022-09-21T03:45:01;97974.00;;;7.51;68.05
32251;BME280;41295;48.518;9.206;2022-09-21T03:47:04;97970.53;;;7.53;67.66
32251;BME280;41295;48.518;9.206;2022-09-21T03:49:06;97962.75;;;7.53;67.54
32251;BME280;41295;48.518;9.206;2022-09-21T03:51:09;97968.88;;;7.48;67.28
32251;BME280;41295;48.518;9.206;2022-09-21T03:53:12;97975.78;;;7.49;67.23
32251;BME280;41295;48.518;9.206;2022-09-21T03:55:16;97968.94;;;7.43;67.45
32251;BME280;41295;48.518;9.206;2022-09-21T03:57:19;97976.75;;;7.41;67.50
32251;BME280;41295;48.518;9.206;2022-09-21T03:59:22;97969.00;;;7.38;67.12
32251;BME280;41295;48.518;9.206;2022-09-21T04:01:24;97973.38;;;7.33;67.20
32251;BME280;41295;48.518;9.206;2022-09-21T04:03:27;97971.72;;;7.27;68.01
32251;BME280;41295;48.518;9.206;2022-09-21T04:05:30;97974.34;;;7.26;68.24
32251;BME280;41295;48.518;9.206;2022-09-21T04:07:33;97973.53;;;7.20;67.78
32251;BME280;41295;48.518;9.206;2022-09-21T04:09:36;97980.47;;;7.18;67.83
32251;BME280;41295;48.518;9.206;2022-09-21T04:11:40;97970.13;;;7.17;68.05
32251;BME280;41295;48.518;9.206;2022-09-21T04:13:43;97977.81;;;7.26;67.68
32251;BME280;41295;48.518;9.206;2022-09-21T04:15:46;97980.47;;;7.18;67.82
32251;BME280;41295;48.518;9.206;2022-09-21T04:17:50;97969.28;;;7.16;68.15
32251;BME280;41295;48.518;9.206;2022-09-21T04:19:53;97970.94;;;7.20;68.33
32251;BME280;41295;48.518;9.206;2022-09-21T04:21:56;97973.63;;;7.16;68.34
32251;BME280;41295;48.518;9.206;2022-09-21T04:23:58;97975.38;;;7.12;68.17
32251;BME280;41295;48.518;9.206;2022-09-21T04:26:02;97970.28;;;7.07;68.24
32251;BME280;41295;48.518;9.206;2022-09-21T04:28:06;97976.31;;;7.06;68.44
32251;BME280;41295;48.518;9.206;2022-09-21T04:30:10;97985.88;;;7.03;68.48
32251;BME280;41295;48.518;9.206;2022-09-21T04:32:13;97976.34;;;7.05;69.03
32251;BME280;41295;48.518;9.206;2022-09-21T04:34:16;97985.03;;;6.99;68.31
32251;BME280;41295;48.518;9.206;2022-09-21T04:36:20;97985.09;;;6.96;68.65
32251;BME280;41295;48.518;9.206;2022-09-21T04:38:22;97979.00;;;6.97;68.43
32251;BME280;41295;48.518;9.206;2022-09-21T04:40:25;97987.72;;;6.93;68.04
32251;BME280;41295;48.518;9.206;2022-09-21T04:42:28;97987.69;;;6.94;68.49
32251;BME280;41295;48.518;9.206;2022-09-21T04:44:32;97973.78;;;7.03;68.07
32251;BME280;41295;48.518;9.206;2022-09-21T04:46:35;97982.41;;;7.04;67.78
32251;BME280;41295;48.518;9.206;2022-09-21T04:48:39;97988.53;;;6.98;67.33
32251;BME280;41295;48.518;9.206;2022-09-21T04:50:41;97987.69;;;6.94;67.34
32251;BME280;41295;48.518;9.206;2022-09-21T04:52:44;97991.22;;;6.89;67.43
32251;BME280;41295;48.518;9.206;2022-09-21T04:54:46;97991.25;;;6.87;67.54
32251;BME280;41295;48.518;9.206;2022-09-21T04:56:49;97995.56;;;6.86;67.84
32251;BME280;41295;48.518;9.206;2022-09-21T04:58:51;97994.72;;;6.86;68.00
32251;BME280;41295;48.518;9.206;2022-09-21T05:00:55;97997.28;;;6.88;67.96
32251;BME280;41295;48.518;9.206;2022-09-21T05:02:58;97997.28;;;6.88;67.34
32251;BME280;41295;48.518;9.206;2022-09-21T05:05:00;97991.25;;;6.85;67.54
32251;BME280;41295;48.518;9.206;2022-09-21T05:07:03;97997.31;;;6.84;67.20
32251;BME280;41295;48.518;9.206;2022-09-21T05:09:07;97996.41;;;6.87;67.71
32251;BME280;41295;48.518;9.206;2022-09-21T05:11:27;97998.22;;;6.82;67.81
32251;BME280;41295;48.518;9.206;2022-09-21T05:13:30;98002.53;;;6.80;67.54
32251;BME280;41295;48.518;9.206;2022-09-21T05:15:32;97999.91;;;6.83;67.89
32251;BME280;41295;48.518;9.206;2022-09-21T05:17:36;97999.06;;;6.84;67.49
32251;BME280;41295;48.518;9.206;2022-09-21T05:19:39;98010.22;;;6.89;67.32
32251;BME280;41295;48.518;9.206;2022-09-21T05:21:42;97999.91;;;6.86;67.01
32251;BME280;41295;48.518;9.206;2022-09-21T05:23:44;98012.03;;;6.84;67.54
32251;BME280;41295;48.518;9.206;2022-09-21T05:25:47;98012.03;;;6.82;67.48
32251;BME280;41295;48.518;9.206;2022-09-21T05:27:49;98006.00;;;6.80;67.15
32251;BME280;41295;48.518;9.206;2022-09-21T05:29:53;98008.63;;;6.79;67.02
32251;BME280;41295;48.518;9.206;2022-09-21T05:32:00;98007.78;;;6.75;68.00
32251;BME280;41295;48.518;9.206;2022-09-21T05:36:46;98008.63;;;6.79;67.20
32251;BME280;41295;48.518;9.206;2022-09-21T05:38:51;98017.28;;;6.76;67.39
32251;BME280;41295;48.518;9.206;2022-09-21T05:40:54;98010.38;;;6.75;67.69
32251;BME280;41295;48.518;9.206;2022-09-21T05:42:57;98018.94;;;6.82;67.70
32251;BME280;41295;48.518;9.206;2022-09-21T05:45:00;98018.06;;;6.83;67.85
32251;BME280;41295;48.518;9.206;2022-09-21T05:47:07;98011.13;;;6.85;67.98
32251;BME280;41295;48.518;9.206;2022-09-21T05:49:18;98017.13;;;6.89;68.01
32251;BME280;41295;48.518;9.206;2022-09-21T05:51:28;98017.13;;;6.89;68.19
32251;BME280;41295;48.518;9.206;2022-09-21T05:53:43;98021.47;;;6.86;68.38
32251;BME280;41295;48.518;9.206;2022-09-21T05:55:53;98018.88;;;6.88;68.96
32251;BME280;41295;48.518;9.206;2022-09-21T05:58:00;98023.19;;;6.91;68.79
32251;BME280;41295;48.518;9.206;2022-09-21T06:00:13;98024.00;;;6.94;69.13
32251;BME280;41295;48.518;9.206;2022-09-21T06:02:27;98020.50;;;6.98;69.33
32251;BME280;41295;48.518;9.206;2022-09-21T06:04:37;98027.34;;;7.03;69.45
32251;BME280;41295;48.518;9.206;2022-09-21T06:06:40;98027.34;;;7.04;69.60
32251;BME280;41295;48.518;9.206;2022-09-21T06:08:42;98030.81;;;7.05;69.68
32251;BME280;41295;48.518;9.206;2022-09-21T06:10:45;98028.16;;;7.08;69.91
32251;BME280;41295;48.518;9.206;2022-09-21T06:12:50;98032.44;;;7.14;69.88
32251;BME280;41295;48.518;9.206;2022-09-21T06:14:52;98028.94;;;7.15;69.95
32251;BME280;41295;48.518;9.206;2022-09-21T06:16:56;98028.03;;;7.20;69.98
32251;BME280;41295;48.518;9.206;2022-09-21T06:18:59;98032.31;;;7.23;70.08
32251;BME280;41295;48.518;9.206;2022-09-21T06:21:03;98034.00;;;7.26;70.16
32251;BME280;41295;48.518;9.206;2022-09-21T06:23:07;98035.69;;;7.30;70.19
32251;BME280;41295;48.518;9.206;2022-09-21T06:25:10;98032.19;;;7.34;70.17
32251;BME280;41295;48.518;9.206;2022-09-21T06:27:13;98036.53;;;7.33;70.07
32251;BME280;41295;48.518;9.206;2022-09-21T06:29:16;98034.81;;;7.34;70.26
32251;BME280;41295;48.518;9.206;2022-09-21T06:31:25;98030.41;;;7.39;70.18
32251;BME280;41295;48.518;9.206;2022-09-21T06:33:28;98034.75;;;7.37;70.30
32251;BME280;41295;48.518;9.206;2022-09-21T06:35:32;98028.63;;;7.43;70.47
32251;BME280;41295;48.518;9.206;2022-09-21T06:37:36;98032.06;;;7.43;70.56
32251;BME280;41295;48.518;9.206;2022-09-21T06:39:40;98035.47;;;7.49;70.49
32251;BME280;41295;48.518;9.206;2022-09-21T06:41:42;98038.91;;;7.51;70.38
32251;BME280;41295;48.518;9.206;2022-09-21T06:43:45;98034.56;;;7.51;70.69
32251;BME280;41295;48.518;9.206;2022-09-21T06:45:54;98040.66;;;7.50;70.67
32251;BME280;41295;48.518;9.206;2022-09-21T06:47:58;98035.44;;;7.52;70.73
32251;BME280;41295;48.518;9.206;2022-09-21T06:50:00;98038.00;;;7.53;71.22
32251;BME280;41295;48.518;9.206;2022-09-21T06:52:03;98037.97;;;7.56;71.32
32251;BME280;41295;48.518;9.206;2022-09-21T06:54:08;98038.84;;;7.57;71.36
32251;BME280;41295;48.518;9.206;2022-09-21T06:56:10;98036.19;;;7.60;71.43
32251;BME280;41295;48.518;9.206;2022-09-21T06:58:13;98030.09;;;7.64;71.72
32251;BME280;41295;48.518;9.206;2022-09-21T07:00:15;98036.97;;;7.65;71.98
32251;BME280;41295;48.518;9.206;2022-09-21T07:02:18;98032.59;;;7.69;72.08
32251;BME280;41295;48.518;9.206;2022-09-21T07:04:21;98029.19;;;7.65;71.49
32251;BME280;41295;48.518;9.206;2022-09-21T07:06:25;98029.19;;;7.65;71.98
32251;BME280;41295;48.518;9.206;2022-09-21T07:08:29;98029.97;;;7.70;72.60
32251;BME280;41295;48.518;9.206;2022-09-21T07:10:56;98028.22;;;7.73;71.77
32251;BME280;41295;48.518;9.206;2022-09-21T07:13:01;98034.22;;;7.78;71.90
32251;BME280;41295;48.518;9.206;2022-09-21T07:15:05;98037.63;;;7.81;71.99
32251;BME280;41295;48.518;9.206;2022-09-21T07:17:08;98030.59;;;7.88;72.07
32251;BME280;41295;48.518;9.206;2022-09-21T07:19:16;98040.06;;;7.92;72.06
32251;BME280;41295;48.518;9.206;2022-09-21T07:21:19;98034.81;;;7.96;72.07
32251;BME280;41295;48.518;9.206;2022-09-21T07:23:22;98036.50;;;8.00;72.03
32251;BME280;41295;48.518;9.206;2022-09-21T07:25:24;98035.56;;;8.05;71.88
32251;BME280;41295;48.518;9.206;2022-09-21T07:27:29;98040.69;;;8.10;71.69
32251;BME280;41295;48.518;9.206;2022-09-21T07:29:32;98043.19;;;8.15;71.81
32251;BME280;41295;48.518;9.206;2022-09-21T07:31:34;98035.41;;;8.16;71.81
32251;BME280;41295;48.518;9.206;2022-09-21T07:33:37;98038.03;;;8.13;71.41
32251;BME280;41295;48.518;9.206;2022-09-21T07:35:49;98039.72;;;8.17;71.94
32251;BME280;41295;48.518;9.206;2022-09-21T07:37:51;98043.97;;;8.20;72.06
32251;BME280;41295;48.518;9.206;2022-09-21T07:39:56;98042.22;;;8.22;71.95
32251;BME280;41295;48.518;9.206;2022-09-21T07:41:59;98047.31;;;8.30;72.09
32251;BME280;41295;48.518;9.206;2022-09-21T07:44:03;98045.59;;;8.29;71.88
32251;BME280;41295;48.518;9.206;2022-09-21T07:46:07;98053.25;;;8.37;72.03
32251;BME280;41295;48.518;9.206;2022-09-21T07:48:10;98046.28;;;8.40;72.16
32251;BME280;41295;48.518;9.206;2022-09-21T07:50:13;98053.16;;;8.43;72.21
32251;BME280;41295;48.518;9.206;2022-09-21T07:52:15;98048.78;;;8.47;72.17
32251;BME280;41295;48.518;9.206;2022-09-21T07:54:19;98046.97;;;8.52;72.41
32251;BME280;41295;48.518;9.206;2022-09-21T07:56:22;98041.75;;;8.52;72.42
32251;BME280;41295;48.518;9.206;2022-09-21T07:58:25;98043.47;;;8.53;72.80
32251;BME280;41295;48.518;9.206;2022-09-21T08:00:47;98042.56;;;8.57;73.07
32251;BME280;41295;48.518;9.206;2022-09-21T08:02:49;98046.81;;;8.63;73.09
32251;BME280;41295;48.518;9.206;2022-09-21T08:04:52;98045.84;;;8.67;73.13
32251;BME280;41295;48.518;9.206;2022-09-21T08:06:55;98044.97;;;8.70;73.14
32251;BME280;41295;48.518;9.206;2022-09-21T08:08:57;98045.72;;;8.75;73.52
32251;BME280;41295;48.518;9.206;2022-09-21T08:11:02;98039.63;;;8.76;73.76
32251;BME280;41295;48.518;9.206;2022-09-21T08:13:04;98040.56;;;8.73;73.45
32251;BME280;41295;48.518;9.206;2022-09-21T08:15:08;98044.84;;;8.76;73.69
32251;BME280;41295;48.518;9.206;2022-09-21T08:17:32;98037.94;;;8.75;73.36
32251;BME280;41295;48.518;9.206;2022-09-21T08:19:36;98039.63;;;8.76;73.76
32251;BME280;41295;48.518;9.206;2022-09-21T08:21:39;98039.56;;;8.79;73.90
32251;BME280;41295;48.518;9.206;2022-09-21T08:23:41;98042.16;;;8.81;74.32
32251;BME280;41295;48.518;9.206;2022-09-21T08:25:44;98035.16;;;8.84;74.11
32251;BME280;41295;48.518;9.206;2022-09-21T08:27:46;98040.31;;;8.87;73.56
32251;BME280;41295;48.518;9.206;2022-09-21T08:29:49;98035.03;;;8.90;74.17
32251;BME280;41295;48.518;9.206;2022-09-21T08:31:52;98035.78;;;8.97;74.61
32251;BME280;41295;48.518;9.206;2022-09-21T08:33:56;98036.72;;;8.95;74.29
32251;BME280;41295;48.518;9.206;2022-09-21T08:36:00;98036.63;;;8.99;74.35
32251;BME280;41295;48.518;9.206;2022-09-21T08:38:02;98036.50;;;9.04;74.92
32251;BME280;41295;48.518;9.206;2022-09-21T08:40:06;98036.41;;;9.10;74.93
32251;BME280;41295;48.518;9.206;2022-09-21T08:42:23;98035.47;;;9.14;75.04
32251;BME280;41295;48.518;9.206;2022-09-21T08:44:34;98037.19;;;9.16;74.82
32251;BME280;41295;48.518;9.206;2022-09-21T08:46:41;98034.53;;;9.17;75.27
32251;BME280;41295;48.518;9.206;2022-09-21T08:48:47;98038.84;;;9.20;75.55
32251;BME280;41295;48.518;9.206;2022-09-21T08:50:54;98037.06;;;9.22;75.78
32251;BME280;41295;48.518;9.206;2022-09-21T08:53:01;98042.22;;;9.25;75.36
32251;BME280;41295;48.518;9.206;2022-09-21T08:55:12;98033.47;;;9.27;75.46
32251;BME280;41295;48.518;9.206;2022-09-21T08:57:21;98032.53;;;9.32;75.47
32251;BME280;41295;48.518;9.206;2022-09-21T08:59:24;98032.41;;;9.36;75.64
32251;BME280;41295;48.518;9.206;2022-09-21T09:01:47;98037.59;;;9.40;76.03
32251;BME280;41295;48.518;9.206;2022-09-21T09:04:02;98027.03;;;9.46;76.33
32251;BME280;41295;48.518;9.206;2022-09-21T09:06:14;98026.91;;;9.50;75.95
32251;BME280;41295;48.518;9.206;2022-09-21T09:08:39;98024.25;;;9.55;76.38
32251;BME280;41295;48.518;9.206;2022-09-21T09:10:53;98025.91;;;9.59;76.43
32251;BME280;41295;48.518;9.206;2022-09-21T09:13:09;98024.06;;;9.63;76.38
32251;BME280;41295;48.518;9.206;2022-09-21T09:15:42;98019.59;;;9.70;76.17
32251;BME280;41295;48.518;9.206;2022-09-21T09:17:53;98022.94;;;9.75;76.15
32251;BME280;41295;48.518;9.206;2022-09-21T09:20:03;98022.78;;;9.81;76.60
32251;BME280;41295;48.518;9.206;2022-09-21T09:22:11;98013.13;;;9.86;76.82
32251;BME280;41295;48.518;9.206;2022-09-21T09:24:19;98010.44;;;9.91;76.69
32251;BME280;41295;48.518;9.206;2022-09-21T09:26:31;98011.13;;;9.98;76.79
32251;BME280;41295;48.518;9.206;2022-09-21T09:28:37;98017.09;;;10.03;77.01
32251;BME280;41295;48.518;9.206;2022-09-21T09:30:42;98011.75;;;10.08;76.58
32251;BME280;41295;48.518;9.206;2022-09-21T09:32:50;98015.13;;;10.13;76.24
32251;BME280;41295;48.518;9.206;2022-09-21T09:35:00;98008.94;;;10.17;76.35
32251;BME280;41295;48.518;9.206;2022-09-21T09:37:10;98005.38;;;10.21;76.21
32251;BME280;41295;48.518;9.206;2022-09-21T09:39:15;98007.88;;;10.26;76.18
32251;BME280;41295;48.518;9.206;2022-09-21T09:41:40;98005.16;;;10.29;76.28
32251;BME280;41295;48.518;9.206;2022-09-21T09:43:55;98003.28;;;10.36;76.44
32251;BME280;41295;48.518;9.206;2022-09-21T09:46:02;98001.47;;;10.38;76.00
32251;BME280;41295;48.518;9.206;2022-09-21T09:48:25;97991.84;;;10.42;75.51
32251;BME280;41295;48.518;9.206;2022-09-21T09:50:33;97993.47;;;10.48;75.48
32251;BME280;41295;48.518;9.206;2022-09-21T09:52:38;97988.94;;;10.56;74.94
32251;BME280;41295;48.518;9.206;2022-09-21T09:54:41;97983.66;;;10.57;75.07
32251;BME280;41295;48.518;9.206;2022-09-21T09:56:44;97982.53;;;10.68;74.80
32251;BME280;41295;48.518;9.206;2022-09-21T09:58:51;97980.69;;;10.72;73.99
32251;BME280;41295;48.518;9.206;2022-09-21T10:00:56;97982.38;;;10.73;73.70
32251;BME280;41295;48.518;9.206;2022-09-21T10:02:59;97987.56;;;10.74;73.59
32251;BME280;41295;48.518;9.206;2022-09-21T10:05:04;97977.94;;;10.76;73.28
32251;BME280;41295;48.518;9.206;2022-09-21T10:07:17;97979.16;;;10.96;72.28
32251;BME280;41295;48.518;9.206;2022-09-21T10:09:25;97974.13;;;10.88;72.21
32251;BME280;41295;48.518;9.206;2022-09-21T10:11:35;97976.72;;;10.90;72.25
32251;BME280;41295;48.518;9.206;2022-09-21T10:13:39;97974.06;;;10.91;72.04
32251;BME280;41295;48.518;9.206;2022-09-21T10:15:47;97973.97;;;10.94;72.14
32251;BME280;41295;48.518;9.206;2022-09-21T10:17:57;97968.63;;;10.99;72.74
32251;BME280;41295;48.518;9.206;2022-09-21T10:20:05;97970.25;;;11.03;72.66
32251;BME280;41295;48.518;9.206;2022-09-21T10:22:15;97968.38;;;11.09;72.91
32251;BME280;41295;48.518;9.206;2022-09-21T10:24:21;97968.22;;;11.13;72.53
32251;BME280;41295;48.518;9.206;2022-09-21T10:26:29;97961.09;;;11.18;71.83
32251;BME280;41295;48.518;9.206;2022-09-21T10:28:33;97961.88;;;11.22;72.29
32251;BME280;41295;48.518;9.206;2022-09-21T10:30:36;97967.84;;;11.27;72.17
32251;BME280;41295;48.518;9.206;2022-09-21T10:32:53;97962.34;;;11.37;71.76
32251;BME280;41295;48.518;9.206;2022-09-21T10:35:15;97950.81;;;11.44;71.01
32251;BME280;41295;48.518;9.206;2022-09-21T10:37:25;97958.38;;;11.53;69.80
32251;BME280;41295;48.518;9.206;2022-09-21T10:39:29;97952.81;;;11.64;69.78
32251;BME280;41295;48.518;9.206;2022-09-21T10:41:35;97950.56;;;11.81;68.57
32251;BME280;41295;48.518;9.206;2022-09-21T10:43:42;97948.78;;;11.81;68.65
32251;BME280;41295;48.518;9.206;2022-09-21T10:45:52;97950.63;;;11.79;68.94
32251;BME280;41295;48.518;9.206;2022-09-21T10:47:57;97941.06;;;11.78;69.24
32251;BME280;41295;48.518;9.206;2022-09-21T10:50:04;97940.19;;;11.79;69.90
32251;BME280;41295;48.518;9.206;2022-09-21T10:52:07;97939.03;;;11.88;69.74
32251;BME280;41295;48.518;9.206;2022-09-21T10:54:13;97931.03;;;11.93;68.82
32251;BME280;41295;48.518;9.206;2022-09-21T10:56:17;97939.47;;;12.01;68.11
32251;BME280;41295;48.518;9.206;2022-09-21T10:58:22;97942.94;;;12.01;67.88
32251;BME280;41295;48.518;9.206;2022-09-21T11:00:31;97944.63;;;12.02;68.33
32251;BME280;41295;48.518;9.206;2022-09-21T11:02:36;97940.25;;;12.03;68.27
32251;BME280;41295;48.518;9.206;2022-09-21T11:04:43;97937.50;;;12.09;68.36
32251;BME280;41295;48.518;9.206;2022-09-21T11:06:51;97939.22;;;12.09;67.87
32251;BME280;41295;48.518;9.206;2022-09-21T11:09:00;97943.25;;;12.19;66.06
32251;BME280;41295;48.518;9.206;2022-09-21T11:11:16;97932.81;;;12.19;65.30
32251;BME280;41295;48.518;9.206;2022-09-21T11:13:30;97927.53;;;12.21;65.67
32251;BME280;41295;48.518;9.206;2022-09-21T11:15:40;97925.41;;;12.32;64.62
32251;BME280;41295;48.518;9.206;2022-09-21T11:17:53;97937.63;;;12.32;64.75
32251;BME280;41295;48.518;9.206;2022-09-21T11:20:07;97935.88;;;12.32;65.21
32251;BME280;41295;48.518;9.206;2022-09-21T11:22:20;97936.66;;;12.34;65.07